Time;durP1;ratioP1;P1;durP2;ratioP2;P2;SDS_P1;SDS_P2;PMS_P1;PMS_P2;Temp;Humidity;BMP_temperature;BMP_pressure;BME280_temperature;BME280_humidity;BME280_pressure;Samples;Min_cycle;Max_cycle;Signal;HPM_P1;HPM_P2
2022/02/14 00:01:56;;;;;;;;;5.00;4.25;;;;;13.66;55.28;99666.63;5102986;27;45423;-77
2022/02/14 00:04:22;;;;;;;;;5.00;5.00;;;;;13.44;55.30;99627.72;5114506;27;45954;-77
2022/02/14 00:06:47;;;;;;;;;6.75;4.75;;;;;13.44;55.31;99632.25;5105159;27;45230;-77
2022/02/14 00:09:13;;;;;;;;;5.75;4.75;;;;;13.65;55.46;99662.22;5103080;27;45497;-78
2022/02/14 00:11:39;;;;;;;;;1.75;0.75;;;;;13.43;55.57;99623.34;5104217;27;45484;-77
2022/02/14 00:14:04;;;;;;;;;5.50;5.00;;;;;13.63;55.28;99653.41;5102149;27;46186;-77
2022/02/14 00:16:30;;;;;;;;;6.75;5.75;;;;;13.43;55.46;99619.78;5102317;27;45303;-78
2022/02/14 00:18:56;;;;;;;;;5.25;3.75;;;;;13.34;55.36;99594.44;5102513;27;45483;-77
2022/02/14 00:21:21;;;;;;;;;6.25;5.00;;;;;13.51;55.71;99629.09;5101106;27;45159;-77
2022/02/14 00:23:46;;;;;;;;;4.00;4.00;;;;;13.29;55.84;99583.94;5102598;27;45396;-77
2022/02/14 00:26:12;;;;;;;;;5.00;4.50;;;;;13.56;55.74;99631.47;5102632;27;45341;-77
2022/02/14 00:28:37;;;;;;;;;5.00;5.00;;;;;13.33;55.91;99598.94;5102495;27;45286;-78
2022/02/14 00:31:03;;;;;;;;;5.50;4.50;;;;;13.39;55.84;99603.03;5102463;27;45421;-77
2022/02/14 00:33:28;;;;;;;;;5.00;4.00;;;;;13.51;55.82;99615.69;5113518;27;45277;-77
2022/02/14 00:35:54;;;;;;;;;5.25;4.50;;;;;13.41;55.77;99597.59;5104974;27;45404;-77
2022/02/14 00:38:20;;;;;;;;;3.50;3.50;;;;;13.31;55.81;99579.38;5102370;27;45445;-78
2022/02/14 00:40:45;;;;;;;;;5.25;4.00;;;;;13.58;56.02;99624.22;5102305;27;45371;-78
2022/02/14 00:43:12;;;;;;;;;3.25;3.25;;;;;13.55;55.92;99619.03;5097274;27;45457;-77
2022/02/14 00:45:38;;;;;;;;;4.00;3.50;;;;;13.46;55.90;99604.38;5101718;27;45403;-78
2022/02/14 00:48:04;;;;;;;;;4.00;4.00;;;;;13.33;55.93;99588.22;5102479;27;45356;-77
2022/02/14 00:50:29;;;;;;;;;8.00;5.00;;;;;13.57;55.85;99613.59;5101846;27;45309;-77
2022/02/14 00:52:55;;;;;;;;;3.50;3.50;;;;;13.36;55.86;99576.41;5102182;27;45428;-77
2022/02/14 00:55:20;;;;;;;;;5.00;4.25;;;;;13.57;55.85;99601.03;5102155;27;45234;-77
2022/02/14 00:57:47;;;;;;;;;4.00;4.00;;;;;13.49;55.89;99588.09;5092629;27;45409;-78
2022/02/14 01:00:14;;;;;;;;;5.00;5.00;;;;;13.52;56.08;99595.94;5097857;27;45554;-78
2022/02/14 01:02:40;;;;;;;;;5.00;5.00;;;;;13.57;56.04;99603.72;5102121;27;45410;-78
2022/02/14 01:05:06;;;;;;;;;5.00;4.00;;;;;13.35;55.86;99555.97;5102007;27;45446;-78
2022/02/14 01:07:32;;;;;;;;;5.00;5.00;;;;;13.35;56.01;99553.28;5102298;27;45296;-78
2022/02/14 01:10:00;;;;;;;;;5.50;4.00;;;;;13.34;56.10;99554.22;5101917;27;45563;-77
2022/02/14 01:12:28;;;;;;;;;4.00;4.00;;;;;13.50;55.78;99573.75;5101896;27;46572;-78
2022/02/14 01:14:54;;;;;;;;;4.00;4.00;;;;;13.57;55.66;99586.78;5101459;27;45708;-78
2022/02/14 01:17:20;;;;;;;;;5.00;4.00;;;;;13.36;55.83;99556.81;5101957;27;45510;-78
2022/02/14 01:19:46;;;;;;;;;4.75;3.75;;;;;13.45;56.00;99575.00;5101449;27;45409;-78
2022/02/14 01:22:12;;;;;;;;;6.25;4.00;;;;;13.50;55.86;99573.75;5100850;27;45310;-78
2022/02/14 01:24:37;;;;;;;;;5.75;4.25;;;;;13.41;55.81;99554.69;5105922;27;45694;-78
2022/02/14 01:27:04;;;;;;;;;5.25;5.25;;;;;13.42;55.82;99545.72;5111174;27;45449;-78
2022/02/14 01:29:30;;;;;;;;;4.00;4.00;;;;;13.43;55.82;99547.41;5101545;27;45309;-78
2022/02/14 01:31:55;;;;;;;;;4.00;4.00;;;;;13.38;55.74;99526.28;5101580;27;45430;-78
2022/02/14 01:34:21;;;;;;;;;6.00;3.00;;;;;13.45;55.91;99554.41;5101625;27;45506;-78
2022/02/14 01:36:46;;;;;;;;;3.00;3.00;;;;;13.43;55.90;99534.00;5101502;27;45397;-78
2022/02/14 01:39:11;;;;;;;;;2.00;2.00;;;;;13.43;56.07;99532.22;5102331;27;45287;-78
2022/02/14 01:41:37;;;;;;;;;3.75;3.00;;;;;13.50;55.83;99536.22;5095530;27;45309;-78
2022/02/14 01:44:02;;;;;;;;;3.75;3.75;;;;;13.43;56.06;99517.94;5097501;27;45362;-78
2022/02/14 01:46:28;;;;;;;;;4.75;2.75;;;;;13.42;55.91;99519.75;5099538;27;45488;-78
2022/02/14 01:48:53;;;;;;;;;3.00;3.00;;;;;13.67;55.78;99558.41;5099149;27;45273;-79
2022/02/14 01:51:19;;;;;;;;;5.00;3.50;;;;;13.41;56.06;99504.63;5100048;27;45548;-78
2022/02/14 01:53:44;;;;;;;;;4.00;4.00;;;;;13.43;55.88;99517.94;5099972;27;45394;-79
2022/02/14 01:56:14;;;;;;;;;4.00;4.00;;;;;13.44;55.69;99509.78;5099223;27;45856;-78
2022/02/14 01:58:39;;;;;;;;;5.00;5.00;;;;;13.64;56.04;99547.88;5086710;27;45310;-78
2022/02/14 02:01:04;;;;;;;;;4.00;3.50;;;;;13.44;55.83;99514.28;5101009;27;45322;-78
2022/02/14 02:03:30;;;;;;;;;3.25;3.25;;;;;13.48;56.03;99513.13;5101134;27;45245;-78
2022/02/14 02:05:57;;;;;;;;;4.00;4.00;;;;;13.48;56.07;99508.66;5100503;27;45341;-78
2022/02/14 02:08:22;;;;;;;;;5.00;4.00;;;;;13.46;56.22;99507.88;5100149;27;45325;-78
2022/02/14 02:10:48;;;;;;;;;3.50;3.25;;;;;13.69;56.27;99546.59;5099576;27;46013;-78
2022/02/14 02:13:16;;;;;;;;;4.75;4.75;;;;;13.46;56.48;99509.69;5100905;27;45148;-78
2022/02/14 02:15:42;;;;;;;;;3.00;3.00;;;;;13.66;56.27;99536.06;5100390;27;45408;-78
2022/02/14 02:18:08;;;;;;;;;7.25;4.00;;;;;13.48;56.35;99499.72;5100199;27;45405;-78
2022/02/14 02:20:35;;;;;;;;;4.75;4.00;;;;;13.51;56.68;99512.94;5100789;27;46330;-78
2022/02/14 02:23:01;;;;;;;;;3.00;3.00;;;;;13.67;56.52;99543.16;5098792;27;45409;-79
2022/02/14 02:25:26;;;;;;;;;5.00;4.00;;;;;13.37;57.01;99488.84;5101205;27;45288;-78
2022/02/14 02:27:52;;;;;;;;;4.00;4.00;;;;;13.48;56.79;99491.69;5100646;27;45255;-78
2022/02/14 02:30:18;;;;;;;;;3.50;3.00;;;;;13.64;56.98;99521.06;5100649;27;45606;-78
2022/02/14 02:32:45;;;;;;;;;2.50;2.00;;;;;13.50;57.20;99527.31;5100632;27;45329;-79
2022/02/14 02:35:11;;;;;;;;;3.25;3.00;;;;;13.57;57.21;99503.66;5101063;27;45443;-78
2022/02/14 02:37:36;;;;;;;;;6.25;3.50;;;;;13.59;57.25;99512.47;5100532;27;45456;-78
2022/02/14 02:40:04;;;;;;;;;5.00;3.50;;;;;13.49;57.28;99502.31;5101022;27;46353;-78
2022/02/14 02:42:29;;;;;;;;;3.25;3.25;;;;;13.49;57.35;99496.09;5096030;27;45496;-78
2022/02/14 02:44:55;;;;;;;;;3.50;3.50;;;;;13.52;57.50;99498.59;5098944;27;45258;-78
2022/02/14 02:47:23;;;;;;;;;3.00;3.00;;;;;13.48;57.41;99481.84;5100358;27;45324;-78
2022/02/14 02:49:49;;;;;;;;;4.25;3.25;;;;;13.71;57.69;99507.16;5100304;27;47867;-79
2022/02/14 02:52:16;;;;;;;;;5.50;4.25;;;;;13.60;57.62;99504.31;5113971;27;45463;-78
2022/02/14 02:54:42;;;;;;;;;4.00;4.00;;;;;13.52;57.93;99501.25;5100510;27;45433;-78
2022/02/14 02:57:08;;;;;;;;;3.25;3.25;;;;;13.68;57.83;99520.78;5095446;27;45590;-78
2022/02/14 02:59:34;;;;;;;;;4.75;4.75;;;;;13.49;58.07;99496.94;5089362;27;47602;-79
2022/02/14 03:02:01;;;;;;;;;2.00;2.00;;;;;13.73;58.12;99527.63;5102715;27;45415;-78
2022/02/14 03:04:26;;;;;;;;;4.00;4.00;;;;;13.46;58.16;99482.88;5115938;27;45300;-78
2022/02/14 03:06:52;;;;;;;;;3.00;2.00;;;;;13.55;58.07;99495.72;5105726;27;45584;-78
2022/02/14 03:09:17;;;;;;;;;4.75;3.50;;;;;13.67;58.19;99510.13;5103945;27;46593;-78
2022/02/14 03:11:44;;;;;;;;;5.00;4.25;;;;;13.75;58.21;99512.31;5103791;27;45388;-78
2022/02/14 03:14:10;;;;;;;;;2.50;2.50;;;;;13.74;58.38;99511.44;5103667;27;45424;-78
2022/02/14 03:16:35;;;;;;;;;5.00;5.00;;;;;13.47;58.44;99484.63;5102116;27;45980;-78
2022/02/14 03:19:01;;;;;;;;;3.00;3.00;;;;;13.66;58.62;99503.03;5102051;27;48015;-79
2022/02/14 03:21:27;;;;;;;;;5.25;4.00;;;;;13.71;58.91;99517.00;5102009;27;45832;-78
2022/02/14 03:23:53;;;;;;;;;3.00;3.00;;;;;13.52;59.24;99485.19;5103723;27;45424;-78
2022/02/14 03:26:21;;;;;;;;;3.00;3.00;;;;;13.47;59.11;99488.16;5103510;27;45461;-78
2022/02/14 03:28:51;;;;;;;;;6.75;3.75;;;;;13.49;59.18;99488.91;5103316;27;45522;-78
2022/02/14 03:31:17;;;;;;;;;3.75;3.00;;;;;13.69;59.29;99537.72;5103356;27;45366;-78
2022/02/14 03:33:43;;;;;;;;;4.00;3.75;;;;;13.48;59.45;99497.03;5103798;27;45301;-78
2022/02/14 03:36:10;;;;;;;;;3.25;3.25;;;;;13.54;59.73;99510.06;5103000;27;45441;-78
2022/02/14 03:38:36;;;;;;;;;3.25;3.25;;;;;13.43;59.74;99492.00;5117086;27;45358;-77
2022/02/14 03:41:02;;;;;;;;;4.25;4.25;;;;;13.69;60.34;99549.28;5103440;27;45340;-77
2022/02/14 03:43:27;;;;;;;;;3.50;3.50;;;;;13.44;61.16;99522.34;5098491;27;45408;-78
2022/02/14 03:45:53;;;;;;;;;4.00;4.00;;;;;13.40;61.03;99521.69;5103401;27;45219;-78
2022/02/14 03:48:18;;;;;;;;;5.25;4.00;;;;;13.52;60.69;99528.06;5102601;27;45154;-77
2022/02/14 03:50:44;;;;;;;;;3.75;3.00;;;;;13.61;61.20;99562.31;5103248;27;45550;-78
2022/02/14 03:53:09;;;;;;;;;5.00;3.00;;;;;13.38;61.43;99528.09;5103175;27;45368;-78
2022/02/14 03:55:35;;;;;;;;;3.00;3.00;;;;;13.52;61.36;99565.59;5103341;27;45364;-78
2022/02/14 03:58:00;;;;;;;;;4.00;4.00;;;;;13.58;61.11;99570.59;5101496;27;47274;-78
2022/02/14 04:00:26;;;;;;;;;2.25;2.25;;;;;13.38;61.15;99537.00;5107883;27;45417;-78
2022/02/14 04:02:52;;;;;;;;;2.25;2.25;;;;;13.40;61.37;99548.47;5102913;27;45423;-77
2022/02/14 04:05:18;;;;;;;;;4.00;2.00;;;;;13.49;61.21;99581.88;5103103;27;45249;-78
2022/02/14 04:07:45;;;;;;;;;4.00;2.00;;;;;13.52;61.02;99646.03;5103114;27;46079;-77
2022/02/14 04:10:13;;;;;;;;;0.25;0.25;;;;;13.32;60.54;99599.03;5102801;27;45567;-78
2022/02/14 04:12:39;;;;;;;;;0.00;0.00;;;;;13.50;60.09;99643.44;5102310;27;45285;-78
2022/02/14 04:15:06;;;;;;;;;0.00;0.00;;;;;13.32;59.52;99639.22;5102696;27;45434;-77
2022/02/14 04:17:32;;;;;;;;;0.00;0.00;;;;;13.08;58.99;99612.06;5102605;27;45378;-78
2022/02/14 04:19:57;;;;;;;;;0.00;0.00;;;;;13.27;59.15;99642.16;5102947;27;45417;-78
2022/02/14 04:22:22;;;;;;;;;0.00;0.00;;;;;13.09;58.85;99620.00;5099693;27;45482;-78
2022/02/14 04:24:48;;;;;;;;;0.00;0.00;;;;;13.27;58.47;99668.94;5102884;27;45668;-78
2022/02/14 04:27:14;;;;;;;;;0.00;0.00;;;;;13.12;58.33;99632.38;5102393;27;45503;-78
2022/02/14 04:29:40;;;;;;;;;0.25;0.00;;;;;13.09;58.49;99638.75;5102556;27;45300;-78
2022/02/14 04:32:06;;;;;;;;;0.00;0.00;;;;;13.00;58.63;99633.97;5102917;27;45164;-78
2022/02/14 04:34:31;;;;;;;;;0.00;0.00;;;;;13.08;58.18;99649.56;5116301;27;45488;-78
2022/02/14 04:36:57;;;;;;;;;0.00;0.00;;;;;13.02;58.09;99650.81;5102505;27;45402;-78
2022/02/14 04:39:23;;;;;;;;;0.00;0.00;;;;;13.05;58.06;99664.03;5102676;27;45239;-78
2022/02/14 04:41:48;;;;;;;;;0.00;0.00;;;;;13.03;58.14;99665.94;5098005;27;45363;-78
2022/02/14 04:44:14;;;;;;;;;0.50;0.00;;;;;13.00;57.87;99660.75;5096643;27;45630;-78
2022/02/14 04:46:40;;;;;;;;;0.00;0.00;;;;;13.16;57.61;99699.09;5102033;27;45361;-78
2022/02/14 04:49:06;;;;;;;;;0.00;0.00;;;;;13.17;57.84;99702.63;5101597;27;45364;-78
2022/02/14 04:51:32;;;;;;;;;0.00;0.00;;;;;13.14;57.94;99709.00;5107870;27;45437;-78
2022/02/14 04:53:58;;;;;;;;;0.00;0.00;;;;;13.02;57.81;99701.72;5102551;27;45434;-78
2022/02/14 04:56:23;;;;;;;;;0.00;0.00;;;;;12.85;57.94;99683.97;5100685;27;48257;-78
2022/02/14 04:58:49;;;;;;;;;0.00;0.00;;;;;13.09;57.74;99726.31;5096769;27;45362;-78
2022/02/14 05:01:15;;;;;;;;;0.00;0.00;;;;;12.86;57.64;99696.38;5112807;27;45480;-78
2022/02/14 05:03:41;;;;;;;;;1.00;0.00;;;;;12.92;57.33;99709.41;5101503;27;45368;-78
2022/02/14 05:06:07;;;;;;;;;0.00;0.00;;;;;12.91;57.13;99714.88;5112576;27;46250;-78
2022/02/14 05:08:33;;;;;;;;;0.00;0.00;;;;;12.96;57.39;99736.88;5102749;27;45350;-78
2022/02/14 05:10:58;;;;;;;;;0.00;0.00;;;;;12.98;57.26;99732.31;5096139;27;45381;-78
2022/02/14 05:13:24;;;;;;;;;0.00;0.00;;;;;13.04;57.58;99747.16;5094214;27;45451;-78
2022/02/14 05:15:49;;;;;;;;;0.00;0.00;;;;;12.83;57.33;99734.06;5098433;27;46230;-78
2022/02/14 05:18:15;;;;;;;;;0.75;0.00;;;;;12.80;56.95;99731.56;5101601;27;45372;-78
2022/02/14 05:20:41;;;;;;;;;0.50;0.00;;;;;12.86;57.40;99751.78;5101204;27;45451;-78
2022/02/14 05:23:06;;;;;;;;;0.00;0.00;;;;;12.76;56.95;99738.94;5097999;27;45468;-78
2022/02/14 05:25:32;;;;;;;;;0.00;0.00;;;;;12.99;57.34;99774.22;5101382;27;45565;-78
2022/02/14 05:27:57;;;;;;;;;0.00;0.00;;;;;12.97;57.56;99781.47;5101560;27;45431;-78
2022/02/14 05:30:23;;;;;;;;;0.00;0.00;;;;;12.70;57.59;99751.81;5101806;27;45383;-78
2022/02/14 05:32:48;;;;;;;;;0.00;0.00;;;;;12.93;57.46;99796.88;5101605;27;45430;-78
2022/02/14 05:35:13;;;;;;;;;0.00;0.00;;;;;12.88;57.50;99788.25;5101814;27;45411;-78
2022/02/14 05:37:40;;;;;;;;;0.00;0.00;;;;;12.64;57.51;99749.47;5101411;27;45234;-78
2022/02/14 05:40:07;;;;;;;;;0.00;0.00;;;;;12.69;57.46;99775.00;5101612;27;45324;-79
2022/02/14 05:42:32;;;;;;;;;0.25;0.00;;;;;12.73;57.58;99789.09;5077963;27;45390;-78
2022/02/14 05:44:58;;;;;;;;;0.00;0.00;;;;;12.58;57.55;99761.41;5101176;27;45415;-78
2022/02/14 05:47:23;;;;;;;;;1.00;0.00;;;;;12.52;57.58;99759.06;5106693;27;46541;-78
2022/02/14 05:49:49;;;;;;;;;0.00;0.00;;;;;12.56;57.55;99774.88;5103506;27;45235;-78
2022/02/14 05:52:14;;;;;;;;;0.00;0.00;;;;;12.57;57.62;99789.09;5101073;27;45545;-78
2022/02/14 05:54:40;;;;;;;;;0.00;0.00;;;;;12.57;57.65;99794.44;5101335;27;45395;-78
2022/02/14 05:57:05;;;;;;;;;0.00;0.00;;;;;12.55;57.94;99799.03;5096858;27;45294;-78
2022/02/14 05:59:31;;;;;;;;;0.00;0.00;;;;;12.53;57.66;99799.13;5091372;27;45507;-79
2022/02/14 06:01:57;;;;;;;;;0.00;0.00;;;;;12.51;57.62;99802.81;5099873;27;45292;-78
2022/02/14 06:04:22;;;;;;;;;0.00;0.00;;;;;12.63;57.60;99833.41;5101287;27;46224;-78
2022/02/14 06:06:47;;;;;;;;;0.00;0.00;;;;;12.44;57.46;99801.44;5099838;27;45443;-78
2022/02/14 06:09:13;;;;;;;;;0.00;0.00;;;;;12.45;57.54;99821.91;5101374;27;45418;-78
2022/02/14 06:11:39;;;;;;;;;0.00;0.00;;;;;12.45;57.70;99830.81;5100639;27;45388;-78
2022/02/14 06:14:04;;;;;;;;;0.00;0.00;;;;;12.38;57.50;99829.41;5100473;27;45458;-78
2022/02/14 06:16:31;;;;;;;;;0.00;0.00;;;;;12.33;57.66;99832.34;5100727;27;45266;-78
2022/02/14 06:18:56;;;;;;;;;0.00;0.00;;;;;12.29;57.61;99845.94;5101146;27;45549;-78
2022/02/14 06:21:22;;;;;;;;;0.00;0.00;;;;;12.55;57.46;99888.22;5099029;27;45298;-78
2022/02/14 06:23:48;;;;;;;;;0.00;0.00;;;;;12.29;57.86;99862.00;5100744;27;45309;-78
2022/02/14 06:26:13;;;;;;;;;0.00;0.00;;;;;12.26;57.73;99862.16;5096163;27;45578;-78
2022/02/14 06:28:40;;;;;;;;;0.00;0.00;;;;;12.27;57.48;99877.28;5093130;27;45242;-78
2022/02/14 06:31:07;;;;;;;;;0.00;0.00;;;;;12.30;57.49;99886.00;5100704;27;45328;-78
2022/02/14 06:33:33;;;;;;;;;0.00;0.00;;;;;12.38;57.80;99907.88;5100421;27;45546;-78
2022/02/14 06:35:59;;;;;;;;;0.00;0.00;;;;;12.29;57.58;99894.97;5100190;27;45315;-79
2022/02/14 06:38:24;;;;;;;;;0.00;0.00;;;;;12.26;57.63;99891.59;5099849;27;45713;-78
2022/02/14 06:40:50;;;;;;;;;0.50;0.00;;;;;12.32;57.52;99912.69;5097985;27;45709;-77
2022/02/14 06:43:15;;;;;;;;;0.00;0.00;;;;;12.33;57.44;99922.44;5095209;27;45587;-78
2022/02/14 06:45:44;;;;;;;;;0.00;0.00;;;;;12.20;57.70;99903.50;5096953;27;45994;-72
2022/02/14 06:48:09;;;;;;;;;0.00;0.00;;;;;12.39;57.67;99941.72;5096833;27;45465;-71
2022/02/14 06:50:36;;;;;;;;;0.00;0.00;;;;;12.37;57.86;99938.25;5094818;27;45568;-70
2022/02/14 06:53:19;;;;;;;;;0.25;0.00;;;;;12.08;57.57;99896.09;5095371;27;45836;-68
2022/02/14 06:55:57;;;;;;;;;;;;;;;;;;;;;
2022/02/14 06:58:28;;;;;;;;;0.00;0.00;;;;;12.27;57.60;99934.34;5100839;27;67418;-68
2022/02/14 07:00:53;;;;;;;;;0.00;0.00;;;;;12.26;57.69;99937.94;5103760;27;45333;-68
2022/02/14 07:03:21;;;;;;;;;0.00;0.00;;;;;12.06;57.79;99917.56;5094013;27;48288;-69
2022/02/14 07:05:54;;;;;;;;;0.00;0.00;;;;;12.23;57.64;99944.34;5096752;27;45411;-69
2022/02/14 07:08:25;;;;;;;;;0.00;0.00;;;;;11.99;57.82;99910.81;5104800;27;45543;-70
2022/02/14 07:11:10;;;;;;;;;0.00;0.00;;;;;12.04;57.81;99927.50;5099812;27;46583;-70
2022/02/14 07:13:48;;;;;;;;;0.00;0.00;;;;;12.03;57.64;99934.66;5098078;27;47235;-70
2022/02/14 07:16:23;;;;;;;;;0.00;0.00;;;;;11.99;57.55;99927.72;5094093;27;45449;-70
2022/02/14 07:18:48;;;;;;;;;1.75;0.75;;;;;11.87;57.67;99920.31;5099965;27;45310;-71
2022/02/14 07:21:15;;;;;;;;;0.50;0.00;;;;;12.22;57.79;99974.72;5093835;27;45326;-75
2022/02/14 07:23:40;;;;;;;;;1.75;0.25;;;;;11.95;57.68;99930.66;5096775;27;45587;-75
2022/02/14 07:26:06;;;;;;;;;1.00;1.00;;;;;12.21;57.66;99974.78;5100150;27;45386;-75
2022/02/14 07:28:31;;;;;;;;;0.50;0.50;;;;;11.86;57.58;99938.16;5099739;27;45377;-76
2022/02/14 07:30:57;;;;;;;;;0.75;0.50;;;;;11.92;57.59;99962.91;5089314;27;45456;-74
2022/02/14 07:33:22;;;;;;;;;2.75;1.00;;;;;11.97;57.53;99972.41;5099386;27;45428;-74
2022/02/14 07:35:48;;;;;;;;;0.00;0.00;;;;;11.98;57.68;99975.97;5099461;27;45693;-74
2022/02/14 07:38:13;;;;;;;;;1.00;1.00;;;;;12.12;57.75;100005.56;5097432;27;45453;-75
2022/02/14 07:40:39;;;;;;;;;2.00;0.00;;;;;12.11;57.65;100017.22;5095903;27;47001;-75
2022/02/14 07:43:04;;;;;;;;;2.00;2.00;;;;;11.90;57.63;99980.81;5084748;27;46071;-74
2022/02/14 07:45:30;;;;;;;;;1.25;1.00;;;;;11.90;57.75;99983.47;5096884;27;45385;-74
2022/02/14 07:47:56;;;;;;;;;3.75;3.75;;;;;11.90;57.77;99984.34;5096212;27;45293;-74
2022/02/14 07:50:23;;;;;;;;;4.00;4.00;;;;;11.73;57.60;99955.78;5096876;27;45854;-74
2022/02/14 07:52:52;;;;;;;;;1.00;0.25;;;;;11.90;57.41;99988.84;5102149;27;45879;-74
2022/02/14 07:55:17;;;;;;;;;1.00;1.00;;;;;11.79;57.52;99979.50;5099971;27;45508;-74
2022/02/14 07:57:43;;;;;;;;;2.50;1.00;;;;;11.77;58.05;99980.53;5100197;27;45479;-74
2022/02/14 08:00:09;;;;;;;;;2.00;2.00;;;;;11.76;57.73;99986.81;5103095;27;45561;-74
2022/02/14 08:02:35;;;;;;;;;2.50;1.50;;;;;11.89;57.59;100005.81;5100175;27;47084;-74
2022/02/14 08:05:00;;;;;;;;;1.00;1.00;;;;;11.97;57.97;100035.75;5100258;27;46101;-74
2022/02/14 08:07:28;;;;;;;;;1.25;1.00;;;;;11.83;58.14;100015.00;5092671;27;45550;-75
2022/02/14 08:10:26;;;;;;;;;0.25;0.25;;;;;11.91;58.06;100039.59;5092632;27;46156;-77
2022/02/14 08:12:52;;;;;;;;;1.00;0.00;;;;;11.80;57.87;100017.84;5100907;27;45498;-75
2022/02/14 08:15:27;;;;;;;;;2.00;1.00;;;;;11.66;57.65;100000.66;5101848;27;45259;-76
2022/02/14 08:18:02;;;;;;;;;0.50;0.50;;;;;11.59;57.81;99984.97;5101658;27;45723;-75
2022/02/14 08:20:37;;;;;;;;;2.00;0.25;;;;;11.50;57.84;99983.63;5101376;27;45624;-75
2022/02/14 08:23:06;;;;;;;;;2.00;1.00;;;;;11.47;57.51;99989.97;5099382;27;47732;-75
2022/02/14 08:25:31;;;;;;;;;1.00;1.00;;;;;11.76;57.75;100051.88;5096705;27;45410;-76
2022/02/14 08:28:08;;;;;;;;;;;;;;;;;;;;;
2022/02/14 08:30:35;;;;;;;;;1.00;1.00;;;;;11.60;58.12;100027.69;5100097;27;73076;-74
2022/02/14 08:33:00;;;;;;;;;1.00;1.00;;;;;11.72;57.87;100050.28;5099914;27;46619;-74
2022/02/14 08:35:26;;;;;;;;;1.50;0.00;;;;;11.58;58.06;100034.06;5101407;27;45514;-74
2022/02/14 08:37:53;;;;;;;;;0.00;0.00;;;;;11.63;58.06;100042.72;5093135;27;45688;-74
2022/02/14 08:40:21;;;;;;;;;3.00;0.75;;;;;11.85;57.96;100078.16;5101347;27;45522;-74
2022/02/14 08:42:47;;;;;;;;;1.75;1.75;;;;;11.80;58.23;100072.16;5091049;27;45389;-74
2022/02/14 08:45:12;;;;;;;;;1.75;1.75;;;;;11.64;57.84;100047.09;5101476;27;45302;-74
2022/02/14 08:47:40;;;;;;;;;0.50;0.00;;;;;11.85;58.40;100083.50;5100430;27;45315;-74
2022/02/14 08:50:06;;;;;;;;;1.00;1.00;;;;;11.81;58.38;100076.59;5099226;27;45588;-74
2022/02/14 08:52:31;;;;;;;;;2.00;2.00;;;;;11.70;58.34;100052.16;5100327;27;45477;-73
2022/02/14 08:54:59;;;;;;;;;1.75;1.00;;;;;11.75;58.74;100058.16;5090459;27;45503;-73
2022/02/14 08:57:26;;;;;;;;;2.00;1.00;;;;;11.77;58.26;100052.75;5094697;27;45704;-73
2022/02/14 08:59:51;;;;;;;;;2.00;0.75;;;;;11.81;58.65;100057.88;5108529;27;45391;-73
2022/02/14 09:02:17;;;;;;;;;5.50;1.25;;;;;11.70;58.12;100046.81;5099854;27;46178;-74
2022/02/14 09:04:42;;;;;;;;;1.00;1.00;;;;;11.70;58.11;100043.28;5100909;27;45770;-73
2022/02/14 09:07:07;;;;;;;;;1.00;1.00;;;;;11.68;58.47;100025.50;5099007;27;45535;-74
2022/02/14 09:09:33;;;;;;;;;1.00;1.00;;;;;11.75;58.23;100031.41;5100324;27;45643;-74
2022/02/14 09:12:02;;;;;;;;;0.75;0.75;;;;;11.95;58.26;100067.06;5100446;27;45458;-73
2022/02/14 09:14:32;;;;;;;;;1.75;1.00;;;;;11.82;58.45;100043.53;5100712;27;45494;-74
2022/02/14 09:17:10;;;;;;;;;;;;;;;;;;;;;
2022/02/14 09:19:36;;;;;;;;;1.75;0.00;;;;;11.70;58.57;100019.22;5099631;27;72668;-72
2022/02/14 09:22:02;;;;;;;;;1.00;1.00;;;;;12.08;58.02;100083.34;5100200;27;45969;-73
2022/02/14 09:24:27;;;;;;;;;0.00;0.00;;;;;11.92;57.96;100051.16;5100180;27;45760;-70
2022/02/14 09:26:53;;;;;;;;;1.00;0.25;;;;;11.90;57.95;100056.56;5101279;27;45472;-69
2022/02/14 09:29:20;;;;;;;;;1.75;0.75;;;;;11.86;58.51;100039.78;5099767;27;45492;-68
2022/02/14 09:31:46;;;;;;;;;2.00;1.00;;;;;11.99;58.16;100052.59;5100470;27;45911;-68
2022/02/14 09:34:21;;;;;;;;;4.00;0.00;;;;;12.16;58.16;100078.50;5100653;27;45420;-71
2022/02/14 09:36:58;;;;;;;;;1.00;0.25;;;;;11.96;58.03;100040.25;5099321;27;45432;-68
2022/02/14 09:39:40;;;;;;;;;1.00;0.25;;;;;11.91;58.09;100044.03;5109359;27;45385;-69
2022/02/14 09:42:08;;;;;;;;;4.25;1.25;;;;;11.97;58.35;100049.97;5097744;27;47973;-68
2022/02/14 09:44:41;;;;;;;;;2.00;2.00;;;;;12.05;57.67;100060.31;5099592;27;45419;-68
2022/02/14 09:47:12;;;;;;;;;1.75;1.00;;;;;12.15;57.78;100080.31;5109353;27;45332;-68
2022/02/14 09:49:44;;;;;;;;;0.00;0.00;;;;;12.04;58.07;100066.59;5099723;27;46841;-69
2022/02/14 09:52:23;;;;;;;;;;;;;;;;;;;;;
2022/02/14 09:54:49;;;;;;;;;2.75;1.00;;;;;12.00;57.63;100076.59;5093842;27;73093;-68
2022/02/14 09:57:17;;;;;;;;;1.00;1.00;;;;;12.00;57.91;100068.56;5093844;27;45398;-68
2022/02/14 09:59:44;;;;;;;;;0.75;0.00;;;;;12.06;58.19;100086.09;5099726;27;45502;-68
2022/02/14 10:02:25;;;;;;;;;4.25;1.00;;;;;12.23;58.04;100104.88;5094177;27;45840;-69
2022/02/14 10:05:06;;;;;;;;;3.25;1.00;;;;;12.10;57.56;100086.84;5101150;27;45207;-68
2022/02/14 10:07:44;;;;;;;;;2.25;1.00;;;;;12.12;58.03;100088.50;5096334;27;45441;-69
2022/02/14 10:10:25;;;;;;;;;1.75;1.00;;;;;12.32;57.99;100124.09;5098654;27;45533;-65
2022/02/14 10:12:55;;;;;;;;;2.00;0.00;;;;;12.14;57.85;100094.63;5097958;27;45531;-66
2022/02/14 10:15:23;;;;;;;;;1.00;1.00;;;;;12.11;57.51;100084.09;5096666;27;45744;-66
2022/02/14 10:17:53;;;;;;;;;2.50;1.50;;;;;12.36;57.44;100129.25;5099140;27;45396;-68
2022/02/14 10:20:21;;;;;;;;;2.50;1.00;;;;;12.42;57.46;100128.06;5097271;27;45433;-68
2022/02/14 10:23:02;;;;;;;;;1.50;0.00;;;;;12.20;57.45;100083.63;5096316;27;48091;-68
2022/02/14 10:25:46;;;;;;;;;2.75;0.50;;;;;12.41;57.57;100118.28;5095557;27;45466;-66
2022/02/14 10:28:18;;;;;;;;;3.00;1.00;;;;;12.21;57.47;100087.16;5094524;27;45459;-68
2022/02/14 10:31:18;;;;;;;;;3.00;2.00;;;;;12.19;57.33;100083.69;5086313;27;45268;-68
2022/02/14 10:33:51;;;;;;;;;0.50;0.50;;;;;12.50;57.24;100151.78;5054273;27;45686;-69
2022/02/14 10:36:30;;;;;;;;;3.00;1.75;;;;;12.32;56.99;100119.63;5098243;27;45422;-68
2022/02/14 10:38:57;;;;;;;;;2.25;2.00;;;;;12.47;57.28;100144.75;5097193;27;45386;-68
2022/02/14 10:41:23;;;;;;;;;1.25;0.25;;;;;12.35;57.05;100126.63;5099068;27;45548;-68
2022/02/14 10:43:48;;;;;;;;;2.00;2.00;;;;;12.43;56.89;100132.47;5099330;27;46529;-68
2022/02/14 10:46:22;;;;;;;;;1.00;1.00;;;;;12.34;56.84;100109.69;5098029;27;45265;-68
2022/02/14 10:48:54;;;;;;;;;0.00;0.00;;;;;12.18;56.54;100090.00;5099666;27;45349;-68
2022/02/14 10:51:20;;;;;;;;;0.75;0.75;;;;;12.31;56.12;100117.91;5099253;27;45424;-68
2022/02/14 10:53:49;;;;;;;;;4.00;1.25;;;;;12.41;56.72;100120.97;5096359;27;45436;-68
2022/02/14 10:56:18;;;;;;;;;1.50;1.00;;;;;12.19;56.27;100084.56;5099191;27;45421;-68
2022/02/14 10:58:45;;;;;;;;;1.00;1.00;;;;;12.55;55.96;100137.22;5098970;27;45419;-68
2022/02/14 11:01:11;;;;;;;;;0.75;0.75;;;;;12.37;55.83;100106.00;5095693;27;46758;-68
2022/02/14 11:03:42;;;;;;;;;1.00;1.00;;;;;12.42;55.97;100106.66;5098942;27;45364;-70
2022/02/14 11:06:09;;;;;;;;;1.00;1.00;;;;;12.55;56.23;100129.19;5099348;27;45253;-67
2022/02/14 11:08:36;;;;;;;;;1.50;1.25;;;;;12.62;56.06;100137.75;5099679;27;45379;-66
2022/02/14 11:11:04;;;;;;;;;0.00;0.00;;;;;12.66;55.89;100133.97;5097373;27;45422;-66
2022/02/14 11:13:31;;;;;;;;;3.00;1.50;;;;;12.53;55.66;100104.31;5099785;27;46445;-66
2022/02/14 11:15:59;;;;;;;;;0.00;0.00;;;;;12.54;55.63;100103.34;5102958;27;45731;-66
2022/02/14 11:18:31;;;;;;;;;0.75;0.75;;;;;12.53;55.29;100101.63;5094991;27;45458;-66
2022/02/14 11:20:59;;;;;;;;;1.00;1.00;;;;;12.60;55.54;100108.38;5093185;27;45479;-66
2022/02/14 11:23:27;;;;;;;;;2.00;1.25;;;;;12.45;54.96;100069.03;5101257;27;46517;-66
2022/02/14 11:26:15;;;;;;;;;2.00;0.25;;;;;12.71;54.62;100115.00;5101980;27;45384;-67
2022/02/14 11:29:18;;;;;;;;;0.75;0.25;;;;;12.83;54.53;100125.09;5102587;27;45429;-67
2022/02/14 11:31:44;;;;;;;;;3.00;1.00;;;;;12.84;54.63;100121.47;5097627;27;45365;-66
2022/02/14 11:34:09;;;;;;;;;1.00;1.00;;;;;12.77;54.87;100118.22;5102723;27;46281;-65
2022/02/14 11:36:40;;;;;;;;;1.00;1.00;;;;;12.62;55.02;100081.53;5099771;27;45881;-67
2022/02/14 11:39:08;;;;;;;;;1.00;1.00;;;;;12.57;54.85;100063.03;5098341;27;45280;-67